Terminal Aerodrome Forecast
Issued by NWS

Home | Current Version | Previous Version | Text Only | Print | Product List | Glossary On
Versions: 1 2 3 4 5 6 7 8 9 10 11 12 13 14 15 16 17 18
000
FTUS41 KPBZ 231100
TAFBVI
TAF
KBVI 231129Z 2312/2412 19006KT P6SM OVC050
      TEMPO 2312/2314 6SM -RA BKN035
     FM231700 17006KT P6SM SCT050 BKN200
     FM240200 15010KT 6SM -RA OVC040
     FM240400 18012G18KT 5SM -RA OVC020=

USA.gov is the U.S. government's official web portal to all federal, state and local government web resources and services.